Time;durP1;ratioP1;P1;durP2;ratioP2;P2;SDS_P1;SDS_P2;PMS_P1;PMS_P2;Temp;Humidity;BMP_temperature;BMP_pressure;BME280_temperature;BME280_humidity;BME280_pressure;Samples;Min_cycle;Max_cycle;Signal;HPM_P1;HPM_P2
2022/11/14 00:00:43;;;;;;;;;5.75;4.00;;;;;;;;5001384;28;51061;-58
2022/11/14 00:03:27;;;;;;;;;6.50;5.50;;;;;;;;5001391;28;51427;-63
2022/11/14 00:06:12;;;;;;;;;6.50;3.75;;;;;;;;5001439;28;51871;-63
2022/11/14 00:08:56;;;;;;;;;7.00;5.25;;;;;;;;5001257;28;51322;-60
2022/11/14 00:11:41;;;;;;;;;7.00;5.25;;;;;;;;5001128;28;51091;-63
2022/11/14 00:14:25;;;;;;;;;6.75;3.50;;;;;;;;4986424;28;51113;-61
2022/11/14 00:17:10;;;;;;;;;7.00;5.50;;;;;;;;5001291;28;51459;-64
2022/11/14 00:19:54;;;;;;;;;5.50;4.00;;;;;;;;4995070;28;51026;-65
2022/11/14 00:22:39;;;;;;;;;6.25;4.50;;;;;;;;4988609;28;51078;-61
2022/11/14 00:25:23;;;;;;;;;4.25;4.25;;;;;;;;4982122;28;51138;-62
2022/11/14 00:28:07;;;;;;;;;6.00;4.50;;;;;;;;4980383;28;51135;-60
2022/11/14 00:30:52;;;;;;;;;8.00;6.00;;;;;;;;4981835;28;51157;-61
2022/11/14 00:33:37;;;;;;;;;6.00;5.00;;;;;;;;4981937;28;51231;-63
2022/11/14 00:36:21;;;;;;;;;10.00;7.50;;;;;;;;4981282;28;51201;-60
2022/11/14 00:39:05;;;;;;;;;7.75;5.75;;;;;;;;4970666;28;51032;-60
2022/11/14 00:41:50;;;;;;;;;6.00;6.00;;;;;;;;4996770;28;51359;-60
2022/11/14 00:44:34;;;;;;;;;10.00;4.00;;;;;;;;5001424;28;51468;-61
2022/11/14 00:47:19;;;;;;;;;10.50;5.75;;;;;;;;4990118;28;51533;-62
2022/11/14 00:50:04;;;;;;;;;4.75;4.50;;;;;;;;4981665;28;51185;-61
2022/11/14 00:52:48;;;;;;;;;5.75;5.25;;;;;;;;4987699;28;51193;-62
2022/11/14 00:55:32;;;;;;;;;8.00;4.75;;;;;;;;4988443;28;51035;-62
2022/11/14 00:58:17;;;;;;;;;8.00;5.00;;;;;;;;4981005;28;51153;-61
2022/11/14 01:01:01;;;;;;;;;6.25;5.25;;;;;;;;4980127;28;51123;-63
2022/11/14 01:03:49;;;;;;;;;7.75;6.00;;;;;;;;4981539;28;51039;-64
2022/11/14 01:06:34;;;;;;;;;6.50;5.00;;;;;;;;4980914;28;51098;-62
2022/11/14 01:09:18;;;;;;;;;6.50;4.00;;;;;;;;4981122;28;51062;-61
2022/11/14 01:12:02;;;;;;;;;10.00;5.50;;;;;;;;4980862;28;51166;-60
2022/11/14 01:14:46;;;;;;;;;7.00;7.00;;;;;;;;4981194;28;50999;-63
2022/11/14 01:17:31;;;;;;;;;5.25;5.00;;;;;;;;4980784;28;51604;-63
2022/11/14 01:20:16;;;;;;;;;8.25;5.50;;;;;;;;4989143;28;51100;-62
2022/11/14 01:23:00;;;;;;;;;7.25;5.00;;;;;;;;4980796;28;51102;-62
2022/11/14 01:25:44;;;;;;;;;5.50;5.25;;;;;;;;4980701;28;51204;-61
2022/11/14 01:28:29;;;;;;;;;5.50;4.00;;;;;;;;4980793;28;51102;-60
2022/11/14 01:31:18;;;;;;;;;7.00;5.00;;;;;;;;4980553;28;51129;-61
2022/11/14 01:34:02;;;;;;;;;9.50;4.75;;;;;;;;4980787;28;51536;-63
2022/11/14 01:36:46;;;;;;;;;9.00;4.75;;;;;;;;4980470;28;51012;-65
2022/11/14 01:39:31;;;;;;;;;5.50;4.75;;;;;;;;4980593;28;51059;-62
2022/11/14 01:42:15;;;;;;;;;6.25;6.25;;;;;;;;4980239;28;51398;-60
2022/11/14 01:45:00;;;;;;;;;6.50;5.00;;;;;;;;4980571;28;51095;-63
2022/11/14 01:47:44;;;;;;;;;7.25;5.75;;;;;;;;4980413;28;51383;-62
2022/11/14 01:50:28;;;;;;;;;7.00;5.75;;;;;;;;4979962;28;51190;-60
2022/11/14 01:53:13;;;;;;;;;5.75;4.00;;;;;;;;4980702;28;51163;-61
2022/11/14 01:56:01;;;;;;;;;7.00;7.00;;;;;;;;4980194;28;51148;-60
2022/11/14 01:58:48;;;;;;;;;5.50;4.50;;;;;;;;4980087;28;51116;-60
2022/11/14 02:01:33;;;;;;;;;6.75;5.00;;;;;;;;4979789;28;51012;-60
2022/11/14 02:04:23;;;;;;;;;6.00;5.00;;;;;;;;4980372;28;51169;-62
2022/11/14 02:07:09;;;;;;;;;6.00;5.50;;;;;;;;4993734;28;51043;-63
2022/11/14 02:09:54;;;;;;;;;6.50;4.75;;;;;;;;4999868;28;51167;-61
2022/11/14 02:12:38;;;;;;;;;4.75;4.25;;;;;;;;4999656;28;51955;-64
2022/11/14 02:15:24;;;;;;;;;6.50;6.50;;;;;;;;4999409;28;51134;-63
2022/11/14 02:18:08;;;;;;;;;9.25;5.00;;;;;;;;5000098;28;51108;-61
2022/11/14 02:20:52;;;;;;;;;6.00;5.00;;;;;;;;4999268;28;50988;-61
2022/11/14 02:23:37;;;;;;;;;8.50;4.00;;;;;;;;4999418;28;51436;-63
2022/11/14 02:26:22;;;;;;;;;6.75;4.50;;;;;;;;4991383;28;51150;-62
2022/11/14 02:29:07;;;;;;;;;8.75;5.00;;;;;;;;4980253;28;51107;-63
2022/11/14 02:31:51;;;;;;;;;17.00;17.00;;;;;;;;4986682;28;51091;-63
2022/11/14 02:34:36;;;;;;;;;28.25;23.50;;;;;;;;4979694;28;51074;-59
2022/11/14 02:37:20;;;;;;;;;29.50;25.25;;;;;;;;4979855;28;51083;-63
2022/11/14 02:40:05;;;;;;;;;31.50;27.50;;;;;;;;4979904;28;51443;-62
2022/11/14 02:42:50;;;;;;;;;33.75;28.50;;;;;;;;4979693;28;51065;-63
2022/11/14 02:45:34;;;;;;;;;29.50;26.25;;;;;;;;4979590;28;51106;-61
2022/11/14 02:48:18;;;;;;;;;30.75;27.75;;;;;;;;4984659;28;51129;-64
2022/11/14 02:51:03;;;;;;;;;29.25;26.00;;;;;;;;4986238;28;51159;-64
2022/11/14 02:53:47;;;;;;;;;29.25;27.00;;;;;;;;4979612;28;51201;-61
2022/11/14 02:56:32;;;;;;;;;35.75;31.00;;;;;;;;4979316;28;51451;-59
2022/11/14 02:59:16;;;;;;;;;33.00;27.75;;;;;;;;4979595;28;51245;-61
2022/11/14 03:02:00;;;;;;;;;34.25;30.50;;;;;;;;4986691;28;51023;-62
2022/11/14 03:04:45;;;;;;;;;30.50;26.75;;;;;;;;4979210;28;51127;-62
2022/11/14 03:07:29;;;;;;;;;30.75;27.75;;;;;;;;4979689;28;51070;-60
2022/11/14 03:10:13;;;;;;;;;35.25;31.00;;;;;;;;4979099;28;51578;-60
2022/11/14 03:12:58;;;;;;;;;33.50;28.50;;;;;;;;4979305;28;51793;-60
2022/11/14 03:15:42;;;;;;;;;31.25;26.50;;;;;;;;4979082;28;51164;-63
2022/11/14 03:18:26;;;;;;;;;29.00;27.25;;;;;;;;4979746;28;51158;-62
2022/11/14 03:21:12;;;;;;;;;28.50;27.25;;;;;;;;4979387;28;51644;-61
2022/11/14 03:23:57;;;;;;;;;28.75;27.75;;;;;;;;4979120;28;51020;-62
2022/11/14 03:26:41;;;;;;;;;31.00;28.25;;;;;;;;4979465;28;51742;-63
2022/11/14 03:29:26;;;;;;;;;26.50;23.75;;;;;;;;4979283;28;51100;-59
2022/11/14 03:32:10;;;;;;;;;32.00;26.50;;;;;;;;4992135;28;51134;-62
2022/11/14 03:34:55;;;;;;;;;30.25;27.25;;;;;;;;4998547;28;51590;-64
2022/11/14 03:37:39;;;;;;;;;35.25;29.50;;;;;;;;4999029;28;51127;-61
2022/11/14 03:40:24;;;;;;;;;26.50;24.50;;;;;;;;4998706;28;51035;-63
2022/11/14 03:43:08;;;;;;;;;25.50;23.00;;;;;;;;5001076;28;51153;-60
2022/11/14 03:45:52;;;;;;;;;30.00;25.50;;;;;;;;5001929;28;51410;-62
2022/11/14 03:48:37;;;;;;;;;26.75;26.25;;;;;;;;5002351;28;51098;-59
2022/11/14 03:51:21;;;;;;;;;28.00;25.00;;;;;;;;4996093;28;51442;-62
2022/11/14 03:54:06;;;;;;;;;27.00;24.75;;;;;;;;5001899;28;51106;-60
2022/11/14 03:56:50;;;;;;;;;26.00;23.50;;;;;;;;5002357;28;51119;-62
2022/11/14 03:59:34;;;;;;;;;21.75;21.75;;;;;;;;5001836;28;51368;-62
2022/11/14 04:02:19;;;;;;;;;26.25;23.25;;;;;;;;5002100;28;51457;-62
2022/11/14 04:05:03;;;;;;;;;30.50;25.75;;;;;;;;5001565;28;51208;-60
2022/11/14 04:07:48;;;;;;;;;28.25;27.25;;;;;;;;5002142;28;50995;-60
2022/11/14 04:10:32;;;;;;;;;32.00;29.00;;;;;;;;5001464;28;51122;-64
2022/11/14 04:13:17;;;;;;;;;28.00;25.00;;;;;;;;5001763;28;51274;-61
2022/11/14 04:16:01;;;;;;;;;30.00;25.75;;;;;;;;5001717;28;51102;-59
2022/11/14 04:18:45;;;;;;;;;28.75;25.50;;;;;;;;5001660;28;51000;-60
2022/11/14 04:21:31;;;;;;;;;29.75;23.75;;;;;;;;5001862;28;51154;-61
2022/11/14 04:24:15;;;;;;;;;25.00;22.75;;;;;;;;5001487;28;51114;-60
2022/11/14 04:26:59;;;;;;;;;32.50;27.00;;;;;;;;5000246;28;52500;-64
2022/11/14 04:29:44;;;;;;;;;30.25;25.25;;;;;;;;4981866;28;51115;-59
2022/11/14 04:32:28;;;;;;;;;34.00;29.00;;;;;;;;4994096;28;51169;-63
2022/11/14 04:35:12;;;;;;;;;33.50;30.25;;;;;;;;5001090;28;51124;-61
2022/11/14 04:37:57;;;;;;;;;35.75;31.50;;;;;;;;5001348;28;51823;-63
2022/11/14 04:40:47;;;;;;;;;37.00;31.25;;;;;;;;5001525;28;51550;-60
2022/11/14 04:43:31;;;;;;;;;34.75;29.00;;;;;;;;5001099;28;51303;-65
2022/11/14 04:46:16;;;;;;;;;29.00;28.00;;;;;;;;5001225;28;51186;-63
2022/11/14 04:49:00;;;;;;;;;30.50;27.00;;;;;;;;4992403;28;51147;-62
2022/11/14 04:51:45;;;;;;;;;30.50;27.75;;;;;;;;4996323;28;51493;-61
2022/11/14 04:54:29;;;;;;;;;33.25;28.00;;;;;;;;5000616;28;51193;-61
2022/11/14 04:57:15;;;;;;;;;32.50;31.00;;;;;;;;5001181;28;51095;-61
2022/11/14 04:59:59;;;;;;;;;28.75;23.50;;;;;;;;5000657;28;51148;-64
2022/11/14 05:02:43;;;;;;;;;29.75;28.75;;;;;;;;5001000;28;51052;-65
2022/11/14 05:05:28;;;;;;;;;33.75;26.50;;;;;;;;5000642;28;51572;-59
2022/11/14 05:08:12;;;;;;;;;32.75;29.25;;;;;;;;5000543;28;51322;-62
2022/11/14 05:10:57;;;;;;;;;28.75;27.00;;;;;;;;5000783;28;51234;-63
2022/11/14 05:13:41;;;;;;;;;31.50;28.75;;;;;;;;5000760;28;51119;-59
2022/11/14 05:16:26;;;;;;;;;28.50;25.00;;;;;;;;5000545;28;51026;-60
2022/11/14 05:19:10;;;;;;;;;31.25;30.00;;;;;;;;5000295;28;51016;-62
2022/11/14 05:21:54;;;;;;;;;30.50;28.50;;;;;;;;5000756;28;51145;-60
2022/11/14 05:24:39;;;;;;;;;37.50;32.25;;;;;;;;4987525;28;52045;-61
2022/11/14 05:27:23;;;;;;;;;37.25;33.25;;;;;;;;4980497;28;51170;-63
2022/11/14 05:30:08;;;;;;;;;48.00;38.25;;;;;;;;4980764;28;51541;-62
2022/11/14 05:32:52;;;;;;;;;46.50;36.25;;;;;;;;4980495;28;51081;-60
2022/11/14 05:35:36;;;;;;;;;39.50;33.00;;;;;;;;4980453;28;51343;-59
2022/11/14 05:38:21;;;;;;;;;38.00;32.75;;;;;;;;4980386;28;51055;-62
2022/11/14 05:41:07;;;;;;;;;42.25;36.50;;;;;;;;4980557;28;51023;-63
2022/11/14 05:43:51;;;;;;;;;61.50;48.00;;;;;;;;4980166;28;51092;-62
2022/11/14 05:46:35;;;;;;;;;61.50;48.50;;;;;;;;4992186;28;51098;-63
2022/11/14 05:49:19;;;;;;;;;55.00;46.00;;;;;;;;4984989;28;51053;-59
2022/11/14 05:52:04;;;;;;;;;50.75;41.75;;;;;;;;4999938;28;51139;-62
2022/11/14 05:54:48;;;;;;;;;56.00;44.00;;;;;;;;5000114;28;51107;-62
2022/11/14 05:57:34;;;;;;;;;47.75;39.50;;;;;;;;4999463;28;51118;-63
2022/11/14 06:00:19;;;;;;;;;40.50;33.50;;;;;;;;5000081;28;51041;-61
2022/11/14 06:03:03;;;;;;;;;23.25;14.75;;;;;;;;4999790;28;51004;-62
2022/11/14 06:05:47;;;;;;;;;47.25;38.50;;;;;;;;4999137;28;51072;-60
2022/11/14 06:08:32;;;;;;;;;53.00;44.50;;;;;;;;4999481;28;51027;-61
2022/11/14 06:11:18;;;;;;;;;54.50;42.75;;;;;;;;4999794;28;51023;-60
2022/11/14 06:14:03;;;;;;;;;51.75;40.75;;;;;;;;4984514;28;51309;-61
2022/11/14 06:16:47;;;;;;;;;51.75;41.75;;;;;;;;4999369;28;51138;-62
2022/11/14 06:19:31;;;;;;;;;57.00;42.75;;;;;;;;4999488;28;51573;-62
2022/11/14 06:22:16;;;;;;;;;48.00;39.25;;;;;;;;4999389;28;51082;-63
2022/11/14 06:25:01;;;;;;;;;50.25;41.00;;;;;;;;4999496;28;51130;-61
2022/11/14 06:27:45;;;;;;;;;47.00;40.25;;;;;;;;4999224;28;51150;-63
2022/11/14 06:30:30;;;;;;;;;42.75;35.75;;;;;;;;4999750;28;51068;-63
2022/11/14 06:33:14;;;;;;;;;53.50;43.00;;;;;;;;4999474;28;51074;-61
2022/11/14 06:35:59;;;;;;;;;60.25;47.00;;;;;;;;4999413;28;50992;-60
2022/11/14 06:38:44;;;;;;;;;57.75;45.00;;;;;;;;4998979;28;51172;-62
2022/11/14 06:41:28;;;;;;;;;60.25;47.75;;;;;;;;4999415;28;51251;-61
2022/11/14 06:44:13;;;;;;;;;54.75;44.25;;;;;;;;4999300;28;51570;-63
2022/11/14 06:46:58;;;;;;;;;51.50;41.00;;;;;;;;4999119;28;51027;-62
2022/11/14 06:49:42;;;;;;;;;52.00;41.50;;;;;;;;4999027;28;51092;-60
2022/11/14 06:52:26;;;;;;;;;46.50;39.00;;;;;;;;4999253;28;51056;-60
2022/11/14 06:55:11;;;;;;;;;49.75;39.75;;;;;;;;4991283;28;52836;-63
2022/11/14 06:57:55;;;;;;;;;49.50;39.00;;;;;;;;4989428;28;51261;-62
2022/11/14 07:00:40;;;;;;;;;49.75;39.75;;;;;;;;4979629;28;51106;-64
2022/11/14 07:03:24;;;;;;;;;49.50;40.50;;;;;;;;4994752;28;51039;-64
2022/11/14 07:06:10;;;;;;;;;44.50;36.00;;;;;;;;4998457;28;51117;-64
2022/11/14 07:08:55;;;;;;;;;44.75;36.00;;;;;;;;4999089;28;51268;-61
2022/11/14 07:11:39;;;;;;;;;47.00;35.50;;;;;;;;4983957;28;51161;-61
2022/11/14 07:14:24;;;;;;;;;43.25;35.75;;;;;;;;4998682;28;51190;-61
2022/11/14 07:17:08;;;;;;;;;47.00;37.00;;;;;;;;5001096;28;51167;-60
2022/11/14 07:19:53;;;;;;;;;45.00;35.75;;;;;;;;5002927;28;51081;-63
2022/11/14 07:22:37;;;;;;;;;43.75;35.25;;;;;;;;4982530;28;51178;-54
2022/11/14 07:25:22;;;;;;;;;48.50;36.75;;;;;;;;4983150;28;51047;-53
2022/11/14 07:28:06;;;;;;;;;44.50;35.50;;;;;;;;4983015;28;51075;-52
2022/11/14 07:30:50;;;;;;;;;49.00;38.25;;;;;;;;4982902;28;51109;-55
2022/11/14 07:33:35;;;;;;;;;48.25;37.75;;;;;;;;4988390;28;51535;-54
2022/11/14 07:36:19;;;;;;;;;46.50;37.00;;;;;;;;4999601;28;51161;-52
2022/11/14 07:39:03;;;;;;;;;47.50;37.50;;;;;;;;5000951;28;51050;-52
2022/11/14 07:41:48;;;;;;;;;49.25;36.50;;;;;;;;5002052;28;51156;-55
2022/11/14 07:44:32;;;;;;;;;50.00;40.75;;;;;;;;5002474;28;51545;-52
2022/11/14 07:47:17;;;;;;;;;51.25;40.75;;;;;;;;5001813;28;51000;-53
2022/11/14 07:50:01;;;;;;;;;21.75;20.00;;;;;;;;5002268;28;51058;-54
2022/11/14 07:52:49;;;;;;;;;48.25;38.75;;;;;;;;4998949;28;51497;-55
2022/11/14 07:55:37;;;;;;;;;51.25;39.75;;;;;;;;4992401;28;51265;-54
2022/11/14 07:58:21;;;;;;;;;41.25;34.50;;;;;;;;4983480;28;51538;-54
2022/11/14 08:01:06;;;;;;;;;43.00;35.00;;;;;;;;4982025;28;51173;-56
2022/11/14 08:03:50;;;;;;;;;41.25;33.25;;;;;;;;4988534;28;51580;-56
2022/11/14 08:06:34;;;;;;;;;40.50;34.75;;;;;;;;4997523;28;51074;-51
2022/11/14 08:09:19;;;;;;;;;37.75;32.00;;;;;;;;4981879;28;51181;-54
2022/11/14 08:12:03;;;;;;;;;38.25;31.00;;;;;;;;4980526;28;51162;-54
2022/11/14 08:14:48;;;;;;;;;32.75;28.50;;;;;;;;4982137;28;51025;-52
2022/11/14 08:17:32;;;;;;;;;33.25;30.25;;;;;;;;4987750;28;51472;-53
2022/11/14 08:20:16;;;;;;;;;37.75;30.00;;;;;;;;4998677;28;51187;-52
2022/11/14 08:23:02;;;;;;;;;32.50;29.50;;;;;;;;4995043;28;51782;-54
2022/11/14 08:25:46;;;;;;;;;27.50;23.50;;;;;;;;4992536;28;51520;-53
2022/11/14 08:28:31;;;;;;;;;33.25;28.00;;;;;;;;4985395;28;51088;-53
2022/11/14 08:31:15;;;;;;;;;22.25;22.00;;;;;;;;4986877;28;51221;-52
2022/11/14 08:34:00;;;;;;;;;19.75;19.50;;;;;;;;4981364;28;51035;-54
2022/11/14 08:36:44;;;;;;;;;24.00;20.75;;;;;;;;4981334;28;51024;-51
2022/11/14 08:39:28;;;;;;;;;24.25;24.25;;;;;;;;4983347;28;51152;-55
2022/11/14 08:42:12;;;;;;;;;23.50;21.00;;;;;;;;4980619;28;51530;-56
2022/11/14 08:44:57;;;;;;;;;27.25;26.25;;;;;;;;4981602;28;51162;-55
2022/11/14 08:47:41;;;;;;;;;28.50;25.25;;;;;;;;4981659;28;51094;-55
2022/11/14 08:50:26;;;;;;;;;28.75;26.50;;;;;;;;4981496;28;51063;-52
2022/11/14 08:53:10;;;;;;;;;20.75;18.75;;;;;;;;4985533;28;51539;-54
2022/11/14 08:55:54;;;;;;;;;24.50;21.25;;;;;;;;4997548;28;51055;-51
2022/11/14 08:58:39;;;;;;;;;27.25;23.25;;;;;;;;4975413;28;51152;-54
2022/11/14 09:01:23;;;;;;;;;24.25;20.00;;;;;;;;4999130;28;51095;-53
2022/11/14 09:04:08;;;;;;;;;21.50;17.75;;;;;;;;5001054;28;51210;-52
2022/11/14 09:06:52;;;;;;;;;18.00;17.25;;;;;;;;5000477;28;51463;-55
2022/11/14 09:09:37;;;;;;;;;21.50;18.00;;;;;;;;5000527;28;51055;-55
2022/11/14 09:12:21;;;;;;;;;22.50;20.50;;;;;;;;4999243;28;51396;-55
2022/11/14 09:15:06;;;;;;;;;17.25;17.25;;;;;;;;5000808;28;51022;-53
2022/11/14 09:17:54;;;;;;;;;19.25;14.00;;;;;;;;5000351;28;51487;-54
2022/11/14 09:20:38;;;;;;;;;16.25;16.00;;;;;;;;4985036;28;51083;-53
2022/11/14 09:23:24;;;;;;;;;18.75;16.25;;;;;;;;4998613;28;51441;-54
2022/11/14 09:26:08;;;;;;;;;13.25;13.25;;;;;;;;4986694;28;51094;-55
2022/11/14 09:28:52;;;;;;;;;20.25;17.00;;;;;;;;4980901;28;51165;-52
2022/11/14 09:31:37;;;;;;;;;14.25;13.50;;;;;;;;4980081;28;51457;-56
2022/11/14 09:34:21;;;;;;;;;18.00;13.75;;;;;;;;4979977;28;51127;-56
2022/11/14 09:37:05;;;;;;;;;17.50;15.50;;;;;;;;4980124;28;51176;-55
2022/11/14 09:39:50;;;;;;;;;12.75;12.75;;;;;;;;4979641;28;51242;-54
2022/11/14 09:42:34;;;;;;;;;15.50;15.50;;;;;;;;4980677;28;51136;-53
2022/11/14 09:45:19;;;;;;;;;17.25;14.75;;;;;;;;4980145;28;51156;-55
2022/11/14 09:48:11;;;;;;;;;18.00;16.50;;;;;;;;4982825;28;51379;-56
2022/11/14 09:51:06;;;;;;;;;25.25;24.50;;;;;;;;4999494;28;51093;-54
2022/11/14 09:53:53;;;;;;;;;23.50;21.50;;;;;;;;4984672;28;51150;-54
2022/11/14 09:56:36;;;;;;;;;20.00;20.00;;;;;;;;4999286;28;51543;-55
2022/11/14 09:59:21;;;;;;;;;25.25;24.00;;;;;;;;4999555;28;51104;-54
2022/11/14 10:02:11;;;;;;;;;22.50;22.25;;;;;;;;4997087;28;51155;-52
2022/11/14 10:05:19;;;;;;;;;23.50;21.50;;;;;;;;4983695;28;51218;-52
2022/11/14 10:08:14;;;;;;;;;30.00;25.75;;;;;;;;4977564;28;51218;-53
2022/11/14 10:11:04;;;;;;;;;25.25;25.25;;;;;;;;4977755;28;51102;-54
2022/11/14 10:13:56;;;;;;;;;21.75;20.00;;;;;;;;4977767;28;51512;-54
2022/11/14 10:16:40;;;;;;;;;22.50;21.25;;;;;;;;4978162;28;51208;-56
2022/11/14 10:19:41;;;;;;;;;28.50;25.75;;;;;;;;4990553;28;51207;-51
2022/11/14 10:22:25;;;;;;;;;20.00;19.00;;;;;;;;4986232;28;51434;-55
2022/11/14 10:25:20;;;;;;;;;20.75;19.00;;;;;;;;4979061;28;52300;-56
2022/11/14 10:28:07;;;;;;;;;18.75;18.25;;;;;;;;4995289;28;51194;-54
2022/11/14 10:31:11;;;;;;;;;23.75;23.00;;;;;;;;4999582;28;51514;-52
2022/11/14 10:34:03;;;;;;;;;40.75;34.25;;;;;;;;4994752;28;51193;-54
2022/11/14 10:36:50;;;;;;;;;39.75;31.75;;;;;;;;4995997;28;51092;-53
2022/11/14 10:39:38;;;;;;;;;26.50;23.25;;;;;;;;4979552;28;51582;-52
2022/11/14 10:42:49;;;;;;;;;29.00;25.75;;;;;;;;4986757;28;51063;-50
2022/11/14 10:45:41;;;;;;;;;23.75;20.50;;;;;;;;4999062;28;51182;-51
2022/11/14 10:48:29;;;;;;;;;21.25;18.00;;;;;;;;4997651;28;51130;-52
2022/11/14 10:51:16;;;;;;;;;18.25;17.75;;;;;;;;4999703;28;51108;-53
2022/11/14 10:54:04;;;;;;;;;17.25;17.00;;;;;;;;5002847;28;51187;-56
2022/11/14 10:56:49;;;;;;;;;15.50;14.75;;;;;;;;5002827;28;51164;-54
2022/11/14 10:59:35;;;;;;;;;18.25;15.75;;;;;;;;5002826;28;51140;-53
2022/11/14 11:02:19;;;;;;;;;19.50;15.75;;;;;;;;5002920;28;51166;-49
2022/11/14 11:05:13;;;;;;;;;14.75;13.00;;;;;;;;5003269;28;51439;-55
2022/11/14 11:14:14;;;;;;;;;13.00;10.75;;;;;;;;5001868;28;51490;-51
2022/11/14 11:17:11;;;;;;;;;15.75;11.75;;;;;;;;4987449;28;51058;-54
2022/11/14 11:20:15;;;;;;;;;11.00;9.50;;;;;;;;4987710;28;51115;-54
2022/11/14 11:23:09;;;;;;;;;13.75;11.25;;;;;;;;4988141;28;51162;-56
2022/11/14 11:26:04;;;;;;;;;14.00;12.25;;;;;;;;4986053;28;51211;-55
2022/11/14 11:29:07;;;;;;;;;14.25;12.00;;;;;;;;5002310;28;51226;-52
2022/11/14 11:31:57;;;;;;;;;11.00;10.00;;;;;;;;4997876;28;51210;-56
2022/11/14 11:34:41;;;;;;;;;10.00;10.00;;;;;;;;5000588;28;52349;-53
2022/11/14 11:37:42;;;;;;;;;10.00;9.00;;;;;;;;4987724;28;51140;-52
2022/11/14 11:40:28;;;;;;;;;7.50;7.50;;;;;;;;4984149;28;52098;-50
2022/11/14 11:43:30;;;;;;;;;8.25;7.25;;;;;;;;5002100;28;51651;-52
2022/11/14 11:46:38;;;;;;;;;12.00;8.50;;;;;;;;5002027;28;51130;-52
2022/11/14 11:49:31;;;;;;;;;12.00;8.50;;;;;;;;4975472;28;51081;-51
2022/11/14 11:52:34;;;;;;;;;10.25;9.50;;;;;;;;5002794;28;51487;-56
2022/11/14 11:55:28;;;;;;;;;8.00;8.00;;;;;;;;5002244;28;51043;-55
2022/11/14 11:58:12;;;;;;;;;6.50;6.50;;;;;;;;5001531;28;51429;-52
2022/11/14 12:00:57;;;;;;;;;7.50;7.50;;;;;;;;4992432;28;51115;-52
2022/11/14 12:03:51;;;;;;;;;12.25;7.50;;;;;;;;4982663;28;50965;-49
2022/11/14 12:06:43;;;;;;;;;8.50;6.75;;;;;;;;4981848;28;51076;-51
2022/11/14 12:09:32;;;;;;;;;7.50;7.25;;;;;;;;4982025;28;51511;-55
2022/11/14 12:12:30;;;;;;;;;8.00;7.00;;;;;;;;4996005;28;52303;-52
2022/11/14 12:15:22;;;;;;;;;8.75;7.00;;;;;;;;5002291;28;51116;-55
2022/11/14 12:18:09;;;;;;;;;10.50;9.00;;;;;;;;5001162;28;51367;-54
2022/11/14 12:21:09;;;;;;;;;8.50;5.00;;;;;;;;4994049;28;51181;-54
2022/11/14 12:24:12;;;;;;;;;9.25;6.50;;;;;;;;4986833;28;51186;-57
2022/11/14 12:27:05;;;;;;;;;7.25;6.75;;;;;;;;4983460;28;51032;-52
2022/11/14 12:29:56;;;;;;;;;12.75;9.25;;;;;;;;4981937;28;51068;-53
2022/11/14 12:33:00;;;;;;;;;7.75;6.75;;;;;;;;4981899;28;51574;-53
2022/11/14 12:35:51;;;;;;;;;10.00;8.50;;;;;;;;4981723;28;51558;-51
2022/11/14 12:38:44;;;;;;;;;10.75;8.50;;;;;;;;4985280;28;51056;-53
2022/11/14 12:41:37;;;;;;;;;11.50;10.25;;;;;;;;4997781;28;51195;-54
2022/11/14 12:44:27;;;;;;;;;7.50;6.75;;;;;;;;4970344;28;50997;-51
2022/11/14 12:47:13;;;;;;;;;8.75;7.00;;;;;;;;4986122;28;51156;-54
2022/11/14 12:49:59;;;;;;;;;12.00;7.50;;;;;;;;5001069;28;51303;-53
2022/11/14 12:52:44;;;;;;;;;10.75;6.25;;;;;;;;4986477;28;51139;-51
2022/11/14 12:55:28;;;;;;;;;9.25;7.25;;;;;;;;5001120;28;51040;-53
2022/11/14 12:58:19;;;;;;;;;6.00;6.00;;;;;;;;4992384;28;51139;-51
2022/11/14 13:01:23;;;;;;;;;9.75;7.00;;;;;;;;4980924;28;51479;-53
2022/11/14 13:04:23;;;;;;;;;6.75;6.75;;;;;;;;4989449;28;51186;-50
2022/11/14 13:07:07;;;;;;;;;5.50;5.50;;;;;;;;4982937;28;51157;-53
2022/11/14 13:09:57;;;;;;;;;7.25;6.00;;;;;;;;4995616;28;51427;-51
2022/11/14 13:22:13;;;;;;;;;10.00;8.25;;;;;;;;5000504;28;51142;-52
2022/11/14 13:24:58;;;;;;;;;11.50;8.00;;;;;;;;5000831;28;51154;-53
2022/11/14 13:27:42;;;;;;;;;7.75;7.75;;;;;;;;4980297;28;51640;-55
2022/11/14 13:30:45;;;;;;;;;8.25;7.00;;;;;;;;4989974;28;51131;-53
2022/11/14 13:33:45;;;;;;;;;5.25;5.25;;;;;;;;4991006;28;51169;-54
2022/11/14 13:36:34;;;;;;;;;7.50;7.50;;;;;;;;4992946;28;51466;-52
2022/11/14 13:39:37;;;;;;;;;9.00;7.25;;;;;;;;4984425;28;51454;-52
2022/11/14 13:42:31;;;;;;;;;8.25;6.00;;;;;;;;4998839;28;51307;-53
2022/11/14 13:45:27;;;;;;;;;12.25;10.75;;;;;;;;4996162;28;51217;-54
2022/11/14 13:48:17;;;;;;;;;10.50;9.25;;;;;;;;4989127;28;51654;-52
2022/11/14 13:51:06;;;;;;;;;12.25;9.00;;;;;;;;4998469;28;51462;-49
2022/11/14 13:53:51;;;;;;;;;22.50;17.50;;;;;;;;4999726;28;51150;-51
2022/11/14 13:56:50;;;;;;;;;10.75;8.00;;;;;;;;4983942;28;51198;-53
2022/11/14 13:59:45;;;;;;;;;9.75;8.25;;;;;;;;4980442;28;51163;-52
2022/11/14 14:02:32;;;;;;;;;9.75;9.75;;;;;;;;4987539;28;51481;-51
2022/11/14 14:05:42;;;;;;;;;5.75;5.75;;;;;;;;4980027;28;51103;-51
2022/11/14 14:08:27;;;;;;;;;13.75;10.50;;;;;;;;4983081;28;51158;-55
2022/11/14 14:11:28;;;;;;;;;12.25;9.00;;;;;;;;4988089;28;51097;-52
2022/11/14 14:14:33;;;;;;;;;9.00;8.00;;;;;;;;4999722;28;51142;-52
2022/11/14 14:17:31;;;;;;;;;11.00;10.50;;;;;;;;4999284;28;51566;-52
2022/11/14 14:20:29;;;;;;;;;15.25;12.25;;;;;;;;4999374;28;51470;-54
2022/11/14 14:23:19;;;;;;;;;12.50;10.00;;;;;;;;4979228;28;51152;-53
2022/11/14 14:26:21;;;;;;;;;12.25;10.25;;;;;;;;4982441;28;51309;-49
2022/11/14 14:29:17;;;;;;;;;10.75;9.25;;;;;;;;4981430;28;51205;-53
2022/11/14 14:32:11;;;;;;;;;12.50;8.75;;;;;;;;4979412;28;51163;-52
2022/11/14 14:34:58;;;;;;;;;11.25;10.25;;;;;;;;4979437;28;51392;-52
2022/11/14 14:37:48;;;;;;;;;5.25;5.25;;;;;;;;4981736;28;51103;-52
2022/11/14 14:40:34;;;;;;;;;12.00;10.75;;;;;;;;4987687;28;51139;-52
2022/11/14 14:43:29;;;;;;;;;12.25;8.00;;;;;;;;4993506;28;51205;-53
2022/11/14 14:46:13;;;;;;;;;11.25;11.25;;;;;;;;4990763;28;51255;-53
2022/11/14 14:49:00;;;;;;;;;9.00;7.75;;;;;;;;4993471;28;51496;-53
2022/11/14 14:51:45;;;;;;;;;11.75;8.50;;;;;;;;4979684;28;51173;-51
2022/11/14 14:54:29;;;;;;;;;9.00;7.00;;;;;;;;4980935;28;51541;-55
2022/11/14 14:57:18;;;;;;;;;11.25;9.00;;;;;;;;4979252;28;51051;-54
2022/11/14 15:00:02;;;;;;;;;9.75;9.75;;;;;;;;4979468;28;51487;-55
2022/11/14 15:02:46;;;;;;;;;7.75;5.25;;;;;;;;4978008;28;51515;-52
2022/11/14 15:05:31;;;;;;;;;12.75;10.00;;;;;;;;4978403;28;51162;-53
2022/11/14 15:08:16;;;;;;;;;11.75;8.75;;;;;;;;4978075;28;51558;-51
2022/11/14 15:11:01;;;;;;;;;10.50;9.25;;;;;;;;4978099;28;51171;-52
2022/11/14 15:13:48;;;;;;;;;9.00;9.00;;;;;;;;4986791;28;51083;-52
2022/11/14 15:16:32;;;;;;;;;9.50;8.00;;;;;;;;4993426;28;51082;-53
2022/11/14 15:19:21;;;;;;;;;9.25;8.00;;;;;;;;4979033;28;51461;-52
2022/11/14 15:22:11;;;;;;;;;10.75;8.25;;;;;;;;4986956;28;51076;-52
2022/11/14 15:25:06;;;;;;;;;10.75;9.00;;;;;;;;4994108;28;51059;-47
2022/11/14 15:27:52;;;;;;;;;9.25;9.25;;;;;;;;4983917;28;51088;-52
2022/11/14 15:30:37;;;;;;;;;12.25;9.75;;;;;;;;4983674;28;51084;-50
2022/11/14 15:33:33;;;;;;;;;14.25;10.75;;;;;;;;4981877;28;51213;-54
2022/11/14 15:36:17;;;;;;;;;11.50;10.25;;;;;;;;4985771;28;51400;-51
2022/11/14 15:39:02;;;;;;;;;12.25;8.50;;;;;;;;4988206;28;51110;-50
2022/11/14 15:41:46;;;;;;;;;11.25;11.25;;;;;;;;5003065;28;51095;-51
2022/11/14 15:44:31;;;;;;;;;13.50;12.00;;;;;;;;5002031;28;51169;-51
2022/11/14 15:47:19;;;;;;;;;12.50;12.00;;;;;;;;4992167;28;51181;-51
2022/11/14 15:50:20;;;;;;;;;9.25;9.25;;;;;;;;4982688;28;51452;-53
2022/11/14 15:53:05;;;;;;;;;11.50;11.50;;;;;;;;4990681;28;51123;-48
2022/11/14 15:55:49;;;;;;;;;12.25;11.25;;;;;;;;4979318;28;51133;-49
2022/11/14 15:58:34;;;;;;;;;7.00;7.00;;;;;;;;5001713;28;51511;-51
2022/11/14 16:01:22;;;;;;;;;9.50;9.25;;;;;;;;5002324;28;51202;-52
2022/11/14 16:04:14;;;;;;;;;7.00;7.00;;;;;;;;4989054;28;51110;-52
2022/11/14 16:06:58;;;;;;;;;10.25;9.50;;;;;;;;4981635;28;51174;-50
2022/11/14 16:09:42;;;;;;;;;6.25;5.25;;;;;;;;4982046;28;51355;-51
2022/11/14 16:12:27;;;;;;;;;9.75;8.50;;;;;;;;4981857;28;51239;-49
2022/11/14 16:15:11;;;;;;;;;8.75;8.25;;;;;;;;4981599;28;51417;-50
2022/11/14 16:17:56;;;;;;;;;10.75;8.00;;;;;;;;4988380;28;51190;-51
2022/11/14 16:20:40;;;;;;;;;12.50;9.25;;;;;;;;4980624;28;51166;-52
2022/11/14 16:23:24;;;;;;;;;12.50;11.75;;;;;;;;4982511;28;51163;-51
2022/11/14 16:26:09;;;;;;;;;14.00;12.75;;;;;;;;4995613;28;51153;-49
2022/11/14 16:28:55;;;;;;;;;13.50;11.50;;;;;;;;4987880;28;51161;-54
2022/11/14 16:31:40;;;;;;;;;12.50;10.00;;;;;;;;4984944;28;51188;-50
2022/11/14 16:34:25;;;;;;;;;10.75;9.25;;;;;;;;4988295;28;51160;-50
2022/11/14 16:37:13;;;;;;;;;10.50;8.75;;;;;;;;4985271;28;51122;-52